Time;durP1;ratioP1;P1;durP2;ratioP2;P2;SDS_P1;SDS_P2;PMS_P1;PMS_P2;Temp;Humidity;BMP_temperature;BMP_pressure;BME280_temperature;BME280_humidity;BME280_pressure;Samples;Min_cycle;Max_cycle;Signal;HPM_P1;HPM_P2
2021/04/28 00:01:20;;;;;;;9.40;6.80;;;8.60;57.20;;;;;;4995665;28;20428;-79
2021/04/28 00:03:46;;;;;;;11.83;6.07;;;8.50;57.10;;;;;;4995591;28;20839;-79
2021/04/28 00:06:13;;;;;;;8.30;5.60;;;8.50;57.10;;;;;;4995561;28;20448;-79
2021/04/28 00:08:39;;;;;;;7.47;5.63;;;8.50;56.30;;;;;;4995460;28;20453;-79
2021/04/28 00:11:05;;;;;;;9.10;5.70;;;8.40;56.80;;;;;;4995709;28;20441;-80
2021/04/28 00:13:32;;;;;;;9.00;6.33;;;8.40;56.50;;;;;;4995716;28;20452;-79
2021/04/28 00:15:58;;;;;;;8.17;5.57;;;8.40;57.50;;;;;;4994851;28;20978;-79
2021/04/28 00:18:25;;;;;;;11.00;5.93;;;8.40;57.70;;;;;;4995212;28;20444;-79
2021/04/28 00:20:52;;;;;;;6.90;5.70;;;8.40;58.10;;;;;;4995571;28;20453;-79
2021/04/28 00:23:19;;;;;;;7.23;5.80;;;8.40;58.20;;;;;;4995259;28;21023;-79
2021/04/28 00:25:45;;;;;;;7.53;5.83;;;8.30;58.70;;;;;;4995411;28;20484;-79
2021/04/28 00:28:12;;;;;;;7.73;5.50;;;8.30;58.00;;;;;;4995443;28;20448;-79
2021/04/28 00:30:39;;;;;;;9.50;5.73;;;8.30;57.70;;;;;;4995412;28;20829;-79
2021/04/28 00:33:06;;;;;;;7.67;6.10;;;8.30;57.30;;;;;;4995337;28;21064;-79
2021/04/28 00:35:34;;;;;;;5.87;5.10;;;8.30;56.90;;;;;;4994962;28;20936;-79
2021/04/28 00:38:00;;;;;;;10.03;5.70;;;8.30;57.10;;;;;;4995224;28;20465;-79
2021/04/28 00:40:29;;;;;;;7.13;5.63;;;8.30;57.30;;;;;;4994870;28;20453;-79
2021/04/28 00:42:56;;;;;;;6.93;5.50;;;8.30;57.50;;;;;;4995113;28;20495;-79
2021/04/28 00:45:24;;;;;;;8.03;5.47;;;8.30;57.00;;;;;;4995076;28;20448;-79
2021/04/28 00:47:51;;;;;;;9.27;5.90;;;8.20;57.70;;;;;;4994970;28;20472;-79
2021/04/28 00:50:20;;;;;;;7.63;5.90;;;8.20;56.40;;;;;;4994840;28;20823;-79
2021/04/28 00:52:47;;;;;;;6.93;6.20;;;8.30;55.80;;;;;;4994531;28;21055;-79
2021/04/28 00:55:14;;;;;;;7.63;6.20;;;8.30;56.80;;;;;;4994903;28;20874;-79
2021/04/28 00:57:41;;;;;;;8.03;5.87;;;8.20;58.20;;;;;;4994793;28;20472;-79
2021/04/28 01:00:10;;;;;;;9.60;6.23;;;8.20;58.10;;;;;;4994459;28;20503;-79
2021/04/28 01:02:37;;;;;;;8.37;6.07;;;8.10;58.20;;;;;;4994058;28;20451;-79
2021/04/28 01:05:06;;;;;;;10.23;6.27;;;8.10;58.00;;;;;;4994738;28;20808;-79
2021/04/28 01:07:32;;;;;;;8.57;6.57;;;8.10;58.50;;;;;;4994636;28;20473;-79
2021/04/28 01:10:01;;;;;;;9.40;6.20;;;8.00;59.10;;;;;;4994642;28;20519;-79
2021/04/28 01:12:29;;;;;;;6.80;5.57;;;8.00;59.30;;;;;;4994563;28;20495;-79
2021/04/28 01:14:55;;;;;;;11.43;6.20;;;8.10;59.40;;;;;;4994338;28;20441;-79
2021/04/28 01:17:22;;;;;;;8.40;5.73;;;8.00;59.40;;;;;;4994490;28;20468;-79
2021/04/28 01:19:48;;;;;;;11.47;7.47;;;8.00;59.70;;;;;;4994525;28;20448;-79
2021/04/28 01:22:15;;;;;;;6.83;5.80;;;7.90;59.60;;;;;;4994491;28;20479;-79
2021/04/28 01:24:42;;;;;;;14.63;6.40;;;7.90;59.60;;;;;;4994460;28;20877;-79
2021/04/28 01:27:15;;;;;;;7.60;6.03;;;7.80;59.30;;;;;;4994363;28;20499;-79
2021/04/28 01:29:43;;;;;;;6.90;5.40;;;7.80;59.80;;;;;;4994338;28;20498;-79
2021/04/28 01:32:14;;;;;;;8.43;6.30;;;7.80;58.70;;;;;;4993928;28;20999;-79
2021/04/28 01:34:41;;;;;;;8.03;5.73;;;7.70;58.90;;;;;;4994339;28;20444;-79
2021/04/28 01:37:08;;;;;;;10.50;6.10;;;7.70;59.10;;;;;;4994118;28;20484;-79
2021/04/28 01:39:36;;;;;;;8.10;6.27;;;7.70;59.40;;;;;;4994210;28;20475;-79
2021/04/28 01:42:04;;;;;;;8.63;5.83;;;7.70;59.50;;;;;;4994189;28;20441;-79
2021/04/28 01:44:30;;;;;;;8.80;6.27;;;7.60;60.80;;;;;;4993829;28;21018;-79
2021/04/28 01:46:58;;;;;;;12.43;5.63;;;7.60;59.90;;;;;;4993774;28;20832;-79
2021/04/28 01:49:24;;;;;;;7.37;5.80;;;7.60;60.30;;;;;;4994029;28;20511;-79
2021/04/28 01:51:55;;;;;;;9.77;5.93;;;7.60;60.40;;;;;;4993674;28;21011;-79
2021/04/28 01:54:22;;;;;;;7.50;5.37;;;7.60;59.70;;;;;;4994053;28;20437;-79
2021/04/28 01:56:50;;;;;;;8.00;5.90;;;7.60;59.70;;;;;;4993885;28;20464;-79
2021/04/28 01:59:20;;;;;;;6.43;5.47;;;7.60;59.90;;;;;;4993748;28;21051;-79
2021/04/28 02:01:48;;;;;;;6.77;5.60;;;7.50;60.10;;;;;;4994014;28;20456;-79
2021/04/28 02:04:15;;;;;;;13.10;6.37;;;7.50;60.20;;;;;;4993917;28;20463;-80
2021/04/28 02:06:42;;;;;;;7.83;5.60;;;7.50;61.20;;;;;;4993856;28;20472;-79
2021/04/28 02:09:08;;;;;;;8.00;5.83;;;7.40;59.90;;;;;;4993648;28;20444;-79
2021/04/28 02:11:35;;;;;;;9.60;5.80;;;7.40;59.90;;;;;;4993827;28;20452;-79
2021/04/28 02:14:02;;;;;;;8.17;5.83;;;7.40;60.30;;;;;;4993615;28;20448;-79
2021/04/28 02:16:31;;;;;;;7.10;5.77;;;7.40;60.50;;;;;;4993523;28;20860;-80
2021/04/28 02:18:58;;;;;;;9.70;6.20;;;7.40;60.50;;;;;;4993532;28;20436;-79
2021/04/28 02:21:25;;;;;;;9.10;5.20;;;7.40;59.90;;;;;;4994180;28;20991;-79
2021/04/28 02:23:51;;;;;;;7.60;6.10;;;7.40;58.50;;;;;;4993527;28;20436;-79
2021/04/28 02:26:18;;;;;;;8.20;5.43;;;7.40;60.00;;;;;;4993387;28;20894;-81
2021/04/28 02:28:45;;;;;;;6.80;5.47;;;7.40;59.80;;;;;;4993725;28;20447;-81
2021/04/28 02:31:12;;;;;;;9.27;6.90;;;7.40;59.90;;;;;;4993729;28;20456;-82
2021/04/28 02:33:39;;;;;;;8.43;6.60;;;7.40;60.30;;;;;;4993658;28;20484;-81
2021/04/28 02:36:06;;;;;;;7.20;5.43;;;7.40;60.80;;;;;;4993700;28;20522;-82
2021/04/28 02:38:41;;;;;;;8.10;5.87;;;7.40;61.00;;;;;;4993672;28;20456;-82
2021/04/28 02:41:08;;;;;;;11.40;6.70;;;7.40;60.60;;;;;;4996519;28;20930;-82
2021/04/28 02:43:37;;;;;;;8.73;6.20;;;7.30;60.60;;;;;;4997400;28;20495;-81
2021/04/28 02:46:05;;;;;;;7.07;5.97;;;7.30;61.70;;;;;;4997267;28;20472;-81
2021/04/28 02:48:31;;;;;;;11.80;6.43;;;7.30;62.50;;;;;;4997026;28;20439;-81
2021/04/28 02:50:59;;;;;;;12.17;6.60;;;7.30;62.50;;;;;;4996954;28;20781;-81
2021/04/28 02:53:27;;;;;;;8.20;5.90;;;7.30;62.60;;;;;;4996762;28;20483;-80
2021/04/28 02:55:56;;;;;;;8.60;6.53;;;7.20;63.60;;;;;;4997060;28;20464;-81
2021/04/28 02:58:23;;;;;;;9.43;6.70;;;7.20;63.00;;;;;;4996801;28;20445;-81
2021/04/28 03:00:51;;;;;;;8.67;5.93;;;7.20;63.40;;;;;;4996707;28;20494;-80
2021/04/28 03:03:17;;;;;;;9.60;6.40;;;7.20;63.80;;;;;;4996717;28;20452;-81
2021/04/28 03:05:48;;;;;;;8.70;6.00;;;7.20;63.60;;;;;;4996646;28;20486;-81
2021/04/28 03:08:15;;;;;;;10.10;7.00;;;7.10;64.10;;;;;;4996978;28;20440;-80
2021/04/28 03:10:41;;;;;;;8.10;6.40;;;7.10;64.90;;;;;;4996872;28;20462;-81
2021/04/28 03:13:08;;;;;;;9.93;6.90;;;7.00;64.80;;;;;;4996741;28;20488;-81
2021/04/28 03:15:34;;;;;;;8.40;7.10;;;7.00;64.60;;;;;;4996747;28;20437;-81
2021/04/28 03:18:01;;;;;;;8.10;6.40;;;6.90;64.70;;;;;;4996511;28;20433;-81
2021/04/28 03:20:28;;;;;;;10.73;6.97;;;7.00;65.00;;;;;;4996678;28;20459;-81
2021/04/28 03:22:55;;;;;;;9.70;6.63;;;6.90;65.10;;;;;;4996545;28;20458;-81
2021/04/28 03:25:22;;;;;;;7.97;6.07;;;6.90;65.20;;;;;;4996305;28;20463;-81
2021/04/28 03:27:49;;;;;;;7.67;5.80;;;6.90;65.40;;;;;;4996517;28;20480;-81
2021/04/28 03:30:16;;;;;;;9.23;6.67;;;6.90;65.80;;;;;;4996543;28;20448;-81
2021/04/28 03:32:42;;;;;;;9.90;6.83;;;6.90;65.50;;;;;;4996143;28;20547;-81
2021/04/28 03:35:10;;;;;;;11.60;7.53;;;6.90;65.70;;;;;;4996531;28;20443;-81
2021/04/28 03:37:37;;;;;;;11.60;7.00;;;6.90;66.10;;;;;;4996081;28;20547;-80
2021/04/28 03:40:04;;;;;;;8.77;7.10;;;6.90;65.80;;;;;;4996322;28;20452;-81
2021/04/28 03:42:31;;;;;;;9.33;6.93;;;7.00;65.80;;;;;;4996280;28;20448;-81
2021/04/28 03:44:58;;;;;;;7.67;6.30;;;7.00;66.30;;;;;;4995972;28;20954;-81
2021/04/28 03:47:24;;;;;;;9.90;6.33;;;6.90;66.40;;;;;;4996152;28;20992;-81
2021/04/28 03:49:51;;;;;;;9.57;6.30;;;6.90;67.10;;;;;;4996166;28;20455;-81
2021/04/28 03:52:17;;;;;;;9.00;6.67;;;6.90;67.60;;;;;;4995972;28;20492;-81
2021/04/28 03:54:43;;;;;;;9.67;6.70;;;6.80;67.50;;;;;;4996106;28;20449;-81
2021/04/28 03:57:11;;;;;;;12.23;6.70;;;6.70;67.20;;;;;;4995973;28;20475;-81
2021/04/28 03:59:38;;;;;;;9.07;6.63;;;6.70;67.50;;;;;;4995716;28;20851;-81
2021/04/28 04:02:05;;;;;;;8.40;6.73;;;6.70;67.70;;;;;;4995908;28;20519;-81
2021/04/28 04:04:31;;;;;;;17.53;8.30;;;6.80;68.20;;;;;;4995596;28;20436;-81
2021/04/28 04:06:57;;;;;;;11.07;7.83;;;6.70;68.50;;;;;;4995467;28;20571;-81
2021/04/28 04:09:24;;;;;;;8.47;6.23;;;6.70;68.90;;;;;;4995831;28;20533;-81
2021/04/28 04:11:52;;;;;;;9.77;7.20;;;6.70;69.10;;;;;;4995718;28;20499;-81
2021/04/28 04:14:18;;;;;;;13.57;8.00;;;6.60;68.80;;;;;;4995710;28;20460;-81
2021/04/28 04:16:45;;;;;;;10.80;7.20;;;6.60;68.60;;;;;;4995630;28;20476;-81
2021/04/28 04:19:11;;;;;;;13.50;7.57;;;6.60;68.90;;;;;;4995327;28;20456;-81
2021/04/28 04:21:38;;;;;;;11.90;7.13;;;6.60;69.00;;;;;;4995373;28;20452;-82
2021/04/28 04:24:05;;;;;;;11.33;6.47;;;6.50;70.60;;;;;;4995568;28;20522;-82
2021/04/28 04:26:32;;;;;;;11.77;7.50;;;6.60;70.40;;;;;;4995188;28;20461;-83
2021/04/28 04:28:58;;;;;;;11.30;6.50;;;6.60;69.70;;;;;;4995567;28;20850;-83
2021/04/28 04:31:24;;;;;;;9.67;7.30;;;6.60;70.00;;;;;;4995543;28;20455;-82
2021/04/28 04:33:51;;;;;;;7.90;6.53;;;6.60;70.30;;;;;;4995349;28;20495;-82
2021/04/28 04:36:18;;;;;;;10.40;6.30;;;6.50;71.00;;;;;;4995286;28;20476;-82
2021/04/28 04:38:44;;;;;;;11.03;7.37;;;6.50;71.50;;;;;;4995309;28;20448;-82
2021/04/28 04:41:11;;;;;;;15.67;7.70;;;6.50;71.50;;;;;;4995327;28;20825;-82
2021/04/28 04:43:37;;;;;;;9.03;6.60;;;6.60;71.60;;;;;;4995288;28;20572;-82
2021/04/28 04:46:03;;;;;;;8.30;6.83;;;6.60;71.40;;;;;;4995067;28;20461;-82
2021/04/28 04:48:30;;;;;;;9.83;6.83;;;6.60;72.00;;;;;;4995200;28;20449;-82
2021/04/28 04:50:57;;;;;;;8.67;6.53;;;6.70;71.80;;;;;;4995107;28;20814;-82
2021/04/28 04:53:23;;;;;;;8.17;6.17;;;6.70;71.10;;;;;;4994926;28;20484;-83
2021/04/28 04:55:49;;;;;;;10.23;7.03;;;6.70;70.70;;;;;;4994943;28;20468;-82
2021/04/28 04:58:15;;;;;;;12.63;8.83;;;6.70;70.90;;;;;;4994778;28;20448;-82
2021/04/28 05:00:42;;;;;;;9.17;6.67;;;6.80;72.50;;;;;;4994647;28;20484;-83
2021/04/28 05:03:08;;;;;;;10.27;6.07;;;6.90;72.60;;;;;;4994755;28;20514;-82
2021/04/28 05:05:34;;;;;;;10.40;6.60;;;7.00;71.80;;;;;;4994774;28;20445;-82
2021/04/28 05:08:01;;;;;;;13.23;7.17;;;7.00;71.90;;;;;;4994803;28;20448;-82
2021/04/28 05:10:27;;;;;;;11.00;6.93;;;7.10;71.50;;;;;;4994793;28;20456;-83
2021/04/28 05:12:54;;;;;;;14.90;7.13;;;7.20;71.70;;;;;;4994392;28;20484;-83
2021/04/28 05:15:20;;;;;;;11.57;7.40;;;7.30;71.90;;;;;;4994440;28;20464;-83
2021/04/28 05:17:46;;;;;;;11.20;6.80;;;7.30;71.80;;;;;;4994642;28;20495;-82
2021/04/28 05:20:14;;;;;;;10.60;7.30;;;7.50;70.50;;;;;;4994646;28;20499;-82
2021/04/28 05:22:41;;;;;;;9.83;6.73;;;7.60;71.80;;;;;;4994274;28;20952;-82
2021/04/28 05:25:10;;;;;;;9.10;6.93;;;7.70;71.70;;;;;;4994608;28;20437;-82
2021/04/28 05:27:36;;;;;;;8.37;6.57;;;7.80;71.20;;;;;;4994097;28;20976;-81
2021/04/28 05:30:03;;;;;;;8.97;6.97;;;7.80;70.60;;;;;;4994497;28;20444;-82
2021/04/28 05:32:29;;;;;;;9.87;6.83;;;7.90;70.70;;;;;;4994353;28;20851;-83
2021/04/28 05:34:56;;;;;;;11.90;7.43;;;7.90;71.20;;;;;;4994452;28;20483;-82
2021/04/28 05:37:22;;;;;;;15.20;7.70;;;8.00;72.00;;;;;;4994197;28;20512;-83
2021/04/28 05:39:49;;;;;;;16.53;9.70;;;8.10;72.00;;;;;;4994405;28;20554;-83
2021/04/28 05:42:17;;;;;;;9.33;7.20;;;8.20;72.50;;;;;;4994102;28;20455;-82
2021/04/28 05:44:44;;;;;;;12.37;7.87;;;8.30;72.50;;;;;;4994249;28;20448;-79
2021/04/28 05:47:11;;;;;;;9.77;7.40;;;8.40;72.30;;;;;;4994054;28;20515;-79
2021/04/28 05:49:37;;;;;;;7.87;6.23;;;8.60;71.90;;;;;;4994089;28;20448;-79
2021/04/28 05:52:04;;;;;;;7.93;7.13;;;8.80;72.20;;;;;;4993947;28;20476;-80
2021/04/28 05:54:31;;;;;;;10.40;7.33;;;9.10;72.20;;;;;;4994310;28;20452;-79
2021/04/28 05:56:57;;;;;;;10.90;7.20;;;9.40;71.00;;;;;;4995247;28;20827;-80
2021/04/28 05:59:25;;;;;;;11.97;7.83;;;9.70;69.60;;;;;;4993848;28;20895;-79
2021/04/28 06:01:51;;;;;;;12.07;7.33;;;10.00;61.40;;;;;;4993917;28;20452;-80
2021/04/28 06:04:17;;;;;;;11.77;7.23;;;10.30;59.00;;;;;;4993980;28;20452;-79
2021/04/28 06:06:44;;;;;;;10.50;7.13;;;10.80;59.10;;;;;;4993878;28;20673;-82
2021/04/28 06:09:10;;;;;;;10.00;7.17;;;11.20;58.30;;;;;;4994084;28;20491;-82
2021/04/28 06:11:37;;;;;;;11.53;7.80;;;11.50;55.90;;;;;;4993758;28;20432;-82
2021/04/28 06:14:04;;;;;;;12.07;7.20;;;11.80;55.60;;;;;;4993624;28;21027;-82
2021/04/28 06:16:31;;;;;;;10.63;7.37;;;12.00;55.40;;;;;;4997269;28;20823;-79
2021/04/28 06:18:57;;;;;;;11.10;8.20;;;12.30;54.30;;;;;;4997583;28;20452;-79
2021/04/28 06:21:24;;;;;;;10.70;7.40;;;12.60;54.60;;;;;;4997452;28;20883;-79
2021/04/28 06:23:50;;;;;;;10.60;7.60;;;13.00;53.60;;;;;;4997792;28;20444;-79
2021/04/28 06:26:18;;;;;;;9.33;6.80;;;13.40;50.60;;;;;;4998206;28;20468;-79
2021/04/28 06:28:44;;;;;;;12.60;7.50;;;13.70;49.30;;;;;;4997365;28;20457;-79
2021/04/28 06:31:11;;;;;;;8.83;7.17;;;14.40;49.40;;;;;;4997639;28;20452;-79
2021/04/28 06:33:42;;;;;;;11.07;7.40;;;14.90;47.80;;;;;;4997474;28;20484;-79
2021/04/28 06:36:09;;;;;;;14.20;7.20;;;15.60;48.30;;;;;;4997740;28;20972;-79
2021/04/28 06:38:35;;;;;;;11.17;7.70;;;16.30;45.90;;;;;;4997470;28;20447;-79
2021/04/28 06:41:02;;;;;;;10.03;6.80;;;16.70;44.50;;;;;;4997581;28;20468;-81
2021/04/28 06:43:28;;;;;;;9.40;7.57;;;17.40;43.30;;;;;;4997542;28;20440;-81
2021/04/28 06:45:55;;;;;;;11.60;8.27;;;18.00;43.90;;;;;;4997235;28;20452;-81
2021/04/28 06:48:21;;;;;;;9.60;7.63;;;18.40;42.30;;;;;;4997491;28;20475;-82
2021/04/28 06:50:48;;;;;;;8.90;7.83;;;18.70;42.00;;;;;;4997552;28;20484;-82
2021/04/28 06:53:14;;;;;;;10.60;7.60;;;19.30;41.20;;;;;;4997272;28;21025;-82
2021/04/28 06:55:40;;;;;;;11.07;7.90;;;19.80;40.20;;;;;;4997581;28;20458;-82
2021/04/28 06:58:07;;;;;;;9.63;8.30;;;20.80;39.30;;;;;;4997380;28;20456;-81
2021/04/28 07:00:39;;;;;;;9.80;8.80;;;22.10;38.70;;;;;;4996999;28;20491;-81
2021/04/28 07:03:06;;;;;;;9.82;8.48;;;22.90;36.40;;;;;;4997040;28;20434;-81
2021/04/28 07:05:33;;;;;;;9.60;7.80;;;23.30;35.70;;;;;;4997171;28;20185;-82
2021/04/28 07:08:00;;;;;;;9.80;8.73;;;23.50;35.60;;;;;;4997251;28;20197;-82
2021/04/28 07:10:27;;;;;;;8.07;7.28;;;23.60;35.10;;;;;;4996805;28;20192;-81
2021/04/28 07:12:53;;;;;;;10.32;9.05;;;23.40;35.70;;;;;;4998014;28;20259;-82
2021/04/28 07:15:20;;;;;;;10.40;8.75;;;23.30;36.10;;;;;;4996701;28;20182;-80
2021/04/28 07:17:47;;;;;;;12.40;8.70;;;23.60;36.10;;;;;;4996897;28;20232;-82
2021/04/28 07:20:14;;;;;;;9.02;8.23;;;24.10;35.70;;;;;;4996859;28;20205;-82
2021/04/28 07:22:41;;;;;;;9.35;8.45;;;25.30;34.40;;;;;;4997252;28;20693;-83
2021/04/28 07:25:11;;;;;;;9.93;8.82;;;26.60;32.70;;;;;;4996716;28;20689;-83
2021/04/28 07:27:37;;;;;;;9.32;8.40;;;27.00;32.30;;;;;;4996120;28;20777;-81
2021/04/28 07:30:05;;;;;;;8.93;8.02;;;26.70;32.80;;;;;;4996990;28;20200;-81
2021/04/28 07:32:31;;;;;;;9.63;8.73;;;27.40;31.80;;;;;;4996605;28;20247;-82
2021/04/28 07:34:57;;;;;;;9.15;8.00;;;28.10;31.10;;;;;;4996618;28;20197;-82
2021/04/28 07:37:23;;;;;;;8.65;7.75;;;28.90;30.70;;;;;;4996603;28;20229;-82
2021/04/28 07:39:50;;;;;;;9.30;8.13;;;29.60;29.50;;;;;;4996261;28;20738;-82
2021/04/28 07:42:17;;;;;;;9.10;8.05;;;30.40;29.20;;;;;;4996056;28;20239;-81
2021/04/28 07:44:43;;;;;;;9.20;8.20;;;30.90;28.80;;;;;;4996411;28;20212;-82
2021/04/28 07:47:09;;;;;;;8.98;8.07;;;31.30;27.80;;;;;;4996149;28;20227;-82
2021/04/28 07:49:36;;;;;;;9.43;8.63;;;31.60;27.90;;;;;;4996242;28;20285;-82
2021/04/28 07:52:02;;;;;;;9.77;8.88;;;32.20;27.30;;;;;;4996144;28;20214;-79
2021/04/28 07:54:29;;;;;;;10.35;9.25;;;33.00;27.20;;;;;;4996093;28;20207;-79
2021/04/28 07:56:55;;;;;;;9.38;8.52;;;33.20;26.20;;;;;;4995992;28;20232;-79
2021/04/28 07:59:22;;;;;;;9.65;8.82;;;34.20;26.00;;;;;;4995855;28;20624;-82
2021/04/28 08:01:49;;;;;;;9.10;8.32;;;34.50;25.90;;;;;;4996045;28;20292;-80
2021/04/28 08:04:15;;;;;;;9.20;8.50;;;35.10;25.50;;;;;;4995960;28;20201;-78
2021/04/28 08:06:42;;;;;;;10.00;8.77;;;36.00;24.80;;;;;;4996052;28;20225;-78
2021/04/28 08:09:08;;;;;;;8.90;8.00;;;36.20;24.10;;;;;;4995825;28;20256;-78
2021/04/28 08:11:34;;;;;;;8.68;7.88;;;36.20;24.70;;;;;;4995733;28;20215;-78
2021/04/28 08:14:01;;;;;;;9.38;8.57;;;37.00;24.30;;;;;;4995557;28;20225;-78
2021/04/28 08:16:28;;;;;;;9.20;8.30;;;36.50;23.00;;;;;;4995642;28;20225;-79
2021/04/28 08:18:55;;;;;;;9.77;8.75;;;36.50;23.50;;;;;;4995360;28;20209;-78
2021/04/28 08:21:21;;;;;;;9.05;8.25;;;36.50;23.70;;;;;;4995575;28;20347;-78
2021/04/28 08:23:47;;;;;;;8.52;7.82;;;36.90;23.00;;;;;;4995491;28;20205;-78
2021/04/28 08:26:15;;;;;;;9.68;8.68;;;36.80;22.90;;;;;;4995218;28;20272;-78
2021/04/28 08:28:43;;;;;;;8.48;7.78;;;37.00;22.40;;;;;;4995204;28;20207;-79
2021/04/28 08:31:11;;;;;;;9.25;8.23;;;37.80;21.90;;;;;;4995445;28;20567;-83
2021/04/28 08:33:39;;;;;;;8.95;8.15;;;37.60;22.40;;;;;;4995019;28;20723;-82
2021/04/28 08:36:06;;;;;;;9.93;8.95;;;37.10;22.40;;;;;;4994948;28;20632;-82
2021/04/28 08:38:32;;;;;;;9.07;8.18;;;37.00;22.50;;;;;;4994512;28;20606;-82
2021/04/28 08:41:00;;;;;;;8.98;8.27;;;36.20;22.70;;;;;;4995000;28;20712;-81
2021/04/28 08:43:27;;;;;;;9.68;8.77;;;35.20;23.50;;;;;;4995211;28;20202;-82
2021/04/28 08:45:54;;;;;;;8.90;8.10;;;34.10;24.30;;;;;;4995117;28;20272;-81
2021/04/28 08:48:22;;;;;;;9.00;8.20;;;33.30;24.60;;;;;;4995239;28;20697;-80
2021/04/28 08:50:50;;;;;;;8.35;7.55;;;32.90;24.90;;;;;;4995139;28;20201;-81
2021/04/28 08:53:17;;;;;;;7.72;7.03;;;32.00;25.70;;;;;;4995067;28;20230;-81
2021/04/28 08:55:45;;;;;;;7.90;6.88;;;31.60;25.90;;;;;;4995051;28;20213;-80
2021/04/28 08:58:12;;;;;;;7.18;6.47;;;31.50;25.70;;;;;;4994930;28;20202;-81
2021/04/28 09:00:38;;;;;;;6.55;5.72;;;31.30;25.00;;;;;;4994560;28;20237;-81
2021/04/28 09:03:05;;;;;;;7.03;6.25;;;30.90;24.50;;;;;;4994801;28;20220;-81
2021/04/28 09:05:32;;;;;;;6.82;6.22;;;31.20;24.60;;;;;;4994784;28;20267;-81
2021/04/28 09:08:00;;;;;;;5.18;4.45;;;31.90;23.50;;;;;;4995417;28;20203;-82
2021/04/28 09:10:28;;;;;;;4.90;4.50;;;32.40;21.30;;;;;;4995169;28;20210;-81
2021/04/28 09:12:57;;;;;;;8.52;4.57;;;32.50;22.40;;;;;;4994844;28;20280;-82
2021/04/28 09:15:35;;;;;;;5.22;4.20;;;32.80;21.80;;;;;;4996127;28;20209;-82
2021/04/28 09:18:02;;;;;;;4.65;4.32;;;33.10;22.40;;;;;;4995143;28;20613;-81
2021/04/28 09:20:31;;;;;;;4.88;4.43;;;33.20;23.00;;;;;;4997037;28;20215;-82
2021/04/28 09:23:10;;;;;;;5.20;4.82;;;32.80;22.80;;;;;;4996578;28;20577;-83
2021/04/28 09:25:42;;;;;;;5.03;4.60;;;32.20;22.60;;;;;;4995340;28;20191;-81
2021/04/28 09:28:27;;;;;;;5.70;5.25;;;31.60;22.70;;;;;;4994837;28;20196;-82
2021/04/28 09:31:11;;;;;;;4.80;2.75;;;31.10;23.10;;;;;;4994773;28;20203;-82
2021/04/28 09:33:49;;;;;;;3.40;3.20;;;30.90;21.10;;;;;;4994698;28;20223;-81
2021/04/28 09:36:16;;;;;;;3.00;2.80;;;30.80;21.70;;;;;;4994484;28;20322;-83
2021/04/28 09:38:50;;;;;;;3.58;3.38;;;30.50;20.90;;;;;;4994746;28;20206;-82
2021/04/28 09:41:30;;;;;;;3.55;3.25;;;30.60;21.70;;;;;;4994655;28;20232;-82
2021/04/28 09:43:56;;;;;;;3.65;3.35;;;30.80;21.20;;;;;;4994658;28;20571;-82
2021/04/28 09:46:23;;;;;;;6.13;4.60;;;31.00;22.50;;;;;;4994341;28;20738;-82
2021/04/28 09:48:59;;;;;;;5.38;4.50;;;30.60;23.00;;;;;;4994383;28;20213;-82
2021/04/28 09:51:32;;;;;;;4.80;4.38;;;30.60;22.70;;;;;;4994290;28;20208;-82
2021/04/28 09:54:10;;;;;;;6.30;4.53;;;30.20;22.80;;;;;;4994506;28;20234;-82
2021/04/28 09:56:38;;;;;;;4.30;4.00;;;29.80;22.90;;;;;;4994664;28;20222;-82
2021/04/28 09:59:05;;;;;;;4.43;3.78;;;29.40;22.60;;;;;;4994831;28;20230;-82
2021/04/28 10:01:32;;;;;;;4.07;3.78;;;29.40;23.50;;;;;;4995796;28;20195;-82
2021/04/28 10:03:59;;;;;;;4.32;3.92;;;29.60;24.30;;;;;;4994901;28;20235;-81
2021/04/28 10:06:42;;;;;;;4.60;4.20;;;30.10;24.10;;;;;;4993774;28;20719;-81
2021/04/28 10:09:25;;;;;;;5.15;3.47;;;30.40;23.80;;;;;;4993997;28;20575;-79
2021/04/28 10:11:52;;;;;;;5.25;4.85;;;30.10;23.00;;;;;;4994176;28;20604;-82
2021/04/28 10:14:18;;;;;;;4.03;3.55;;;29.60;23.40;;;;;;4994425;28;20735;-84
2021/04/28 10:16:47;;;;;;;3.70;3.40;;;29.90;23.20;;;;;;4994605;28;20602;-84
2021/04/28 10:19:13;;;;;;;4.38;3.30;;;30.30;23.20;;;;;;4994515;28;20206;-84
2021/04/28 10:21:42;;;;;;;3.88;3.22;;;30.40;23.70;;;;;;4994168;28;20201;-81
2021/04/28 10:24:10;;;;;;;3.72;3.42;;;30.80;22.10;;;;;;4993618;28;20200;-81
2021/04/28 10:26:38;;;;;;;3.60;3.33;;;30.80;22.80;;;;;;4993764;28;20224;-81
2021/04/28 10:29:07;;;;;;;3.35;3.15;;;31.30;22.10;;;;;;4993893;28;20209;-82
2021/04/28 10:31:37;;;;;;;3.80;3.50;;;31.40;21.80;;;;;;4994077;28;20208;-81
2021/04/28 10:34:04;;;;;;;4.15;3.85;;;31.20;22.30;;;;;;4994207;28;20225;-81
2021/04/28 10:36:32;;;;;;;3.28;3.08;;;32.00;22.70;;;;;;4993940;28;20227;-82
2021/04/28 10:38:58;;;;;;;2.88;2.78;;;32.10;21.20;;;;;;4994217;28;20181;-82
2021/04/28 10:41:40;;;;;;;3.10;2.90;;;32.40;21.90;;;;;;4995122;28;20216;-79
2021/04/28 10:44:27;;;;;;;3.30;3.10;;;33.00;21.20;;;;;;4993932;28;20197;-83
2021/04/28 10:47:27;;;;;;;4.18;3.88;;;33.50;21.40;;;;;;4993425;28;20233;-83
2021/04/28 10:50:15;;;;;;;4.00;3.70;;;34.50;21.30;;;;;;4993996;28;20628;-83
2021/04/28 10:52:54;;;;;;;3.95;3.65;;;35.30;20.40;;;;;;4993595;28;20230;-84
2021/04/28 10:55:49;;;;;;;3.67;3.38;;;35.30;20.80;;;;;;4994114;28;20196;-83
2021/04/28 10:58:36;;;;;;;3.97;3.67;;;35.30;20.80;;;;;;4977171;28;20219;-79
2021/04/28 11:01:32;;;;;;;3.20;3.10;;;34.90;20.50;;;;;;4994193;28;20725;-80
2021/04/28 11:03:58;;;;;;;4.72;4.43;;;34.20;21.80;;;;;;4996790;28;20193;-78
2021/04/28 11:06:38;;;;;;;4.78;4.38;;;33.40;21.80;;;;;;4996820;28;20315;-79
2021/04/28 11:09:25;;;;;;;5.03;4.53;;;31.80;22.40;;;;;;4997031;28;20632;-78
2021/04/28 11:11:59;;;;;;;4.05;3.75;;;29.90;23.70;;;;;;4996962;28;20554;-79
2021/04/28 11:14:29;;;;;;;5.18;4.68;;;28.10;25.10;;;;;;4996565;28;20755;-78
2021/04/28 11:16:57;;;;;;;4.72;4.40;;;26.90;26.10;;;;;;4996872;28;20290;-78
2021/04/28 11:19:26;;;;;;;5.00;4.15;;;26.50;27.10;;;;;;4996575;28;20216;-81
2021/04/28 11:22:13;;;;;;;4.45;4.10;;;26.30;27.50;;;;;;4996789;28;20201;-78
2021/04/28 11:25:00;;;;;;;4.07;3.67;;;25.80;27.60;;;;;;4996481;28;20612;-78
2021/04/28 11:27:44;;;;;;;4.15;3.83;;;25.70;28.60;;;;;;4996285;28;20723;-78
2021/04/28 11:30:30;;;;;;;4.35;3.95;;;25.30;28.20;;;;;;4996383;28;20740;-81
2021/04/28 11:33:17;;;;;;;3.78;3.47;;;25.00;28.70;;;;;;4996396;28;20205;-81
2021/04/28 11:35:46;;;;;;;6.13;4.22;;;24.80;29.40;;;;;;4996680;28;20272;-81
2021/04/28 11:38:15;;;;;;;3.75;3.45;;;24.90;28.60;;;;;;4996365;28;20676;-78
2021/04/28 11:40:52;;;;;;;5.13;3.80;;;24.80;29.20;;;;;;4996111;28;20699;-79
2021/04/28 11:43:20;;;;;;;3.78;3.47;;;24.90;29.50;;;;;;4996317;28;20201;-78
2021/04/28 11:45:47;;;;;;;3.70;3.40;;;24.90;29.40;;;;;;4996267;28;20197;-78
2021/04/28 11:48:21;;;;;;;4.60;4.20;;;24.60;29.60;;;;;;4996614;28;20200;-82
2021/04/28 11:50:52;;;;;;;4.00;3.30;;;24.40;29.00;;;;;;4996817;28;20208;-82
2021/04/28 11:53:19;;;;;;;9.87;3.80;;;24.40;29.70;;;;;;4996496;28;20220;-81
2021/04/28 11:55:45;;;;;;;3.80;3.37;;;24.20;29.50;;;;;;4996553;28;20206;-81
2021/04/28 11:58:26;;;;;;;5.53;3.17;;;24.30;30.10;;;;;;4996278;28;20232;-81
2021/04/28 12:01:05;;;;;;;3.63;3.33;;;24.20;30.80;;;;;;4995986;28;20237;-81
2021/04/28 12:03:56;;;;;;;4.07;3.33;;;24.30;29.60;;;;;;4996354;28;20200;-82
2021/04/28 12:06:34;;;;;;;3.97;3.53;;;24.40;28.80;;;;;;4996212;28;20231;-81
2021/04/28 12:09:28;;;;;;;3.47;3.27;;;24.30;29.00;;;;;;4996297;28;20655;-81
2021/04/28 12:12:16;;;;;;;4.40;4.00;;;24.20;30.10;;;;;;4991255;28;20521;-82
2021/04/28 12:14:45;;;;;;;3.30;3.00;;;24.30;29.40;;;;;;4996568;28;20413;-82
2021/04/28 12:17:12;;;;;;;4.87;3.47;;;24.30;29.90;;;;;;4996350;28;20468;-78
2021/04/28 12:19:39;;;;;;;4.50;3.47;;;24.20;29.60;;;;;;4995671;28;20264;-78
2021/04/28 12:22:08;;;;;;;7.53;3.77;;;24.10;29.60;;;;;;4995667;28;20452;-78
2021/04/28 12:24:35;;;;;;;4.67;3.97;;;24.00;29.40;;;;;;4995625;28;20817;-82
2021/04/28 12:27:20;;;;;;;3.57;3.00;;;23.90;30.80;;;;;;4995564;28;20596;-82
2021/04/28 12:29:50;;;;;;;4.23;2.93;;;23.80;29.80;;;;;;4996003;28;20783;-82
2021/04/28 12:32:19;;;;;;;3.00;2.80;;;23.60;29.60;;;;;;4995907;28;20480;-81
2021/04/28 12:34:46;;;;;;;2.43;2.23;;;23.30;28.20;;;;;;4995781;28;20444;-80
2021/04/28 12:37:22;;;;;;;3.00;2.80;;;23.10;29.40;;;;;;4995025;28;20468;-80
2021/04/28 12:39:54;;;;;;;4.03;2.90;;;23.00;30.00;;;;;;4995417;28;20432;-80
2021/04/28 12:42:26;;;;;;;3.47;3.17;;;23.10;28.90;;;;;;4995352;28;20440;-80
2021/04/28 12:44:53;;;;;;;2.80;2.70;;;23.00;29.20;;;;;;4995009;28;20912;-81
2021/04/28 12:47:24;;;;;;;2.90;2.70;;;22.90;29.80;;;;;;4995837;28;20475;-81
2021/04/28 12:50:17;;;;;;;3.40;2.97;;;22.80;31.00;;;;;;4995536;28;20435;-82
2021/04/28 12:52:47;;;;;;;2.73;2.53;;;22.80;30.80;;;;;;4995161;28;20476;-81
2021/04/28 12:55:27;;;;;;;3.07;2.87;;;22.70;31.20;;;;;;4995241;28;20762;-81
2021/04/28 12:57:55;;;;;;;5.63;2.70;;;22.60;30.00;;;;;;4995870;28;20522;-81
2021/04/28 13:00:33;;;;;;;4.27;2.30;;;22.50;28.80;;;;;;4994603;28;20495;-81